sensor_id;sensor_type;location;lat;lon;timestamp;P1;durP1;ratioP1;P2;durP2;ratioP2
56893;SDS011;43392;50.078;13.704;2023-04-24T00:01:59;2.28;;;1.13;;
56893;SDS011;43392;50.078;13.704;2023-04-24T00:04:26;1.73;;;0.90;;
56893;SDS011;43392;50.078;13.704;2023-04-24T00:06:52;1.83;;;0.80;;
56893;SDS011;43392;50.078;13.704;2023-04-24T00:09:22;0.93;;;0.75;;
56893;SDS011;43392;50.078;13.704;2023-04-24T00:11:50;3.30;;;1.00;;
56893;SDS011;43392;50.078;13.704;2023-04-24T00:14:17;4.22;;;1.08;;
56893;SDS011;43392;50.078;13.704;2023-04-24T00:16:43;1.95;;;0.95;;
56893;SDS011;43392;50.078;13.704;2023-04-24T00:19:10;2.00;;;1.08;;
56893;SDS011;43392;50.078;13.704;2023-04-24T00:21:37;1.95;;;0.98;;
56893;SDS011;43392;50.078;13.704;2023-04-24T00:24:04;1.67;;;1.02;;
56893;SDS011;43392;50.078;13.704;2023-04-24T00:26:31;2.50;;;1.15;;
56893;SDS011;43392;50.078;13.704;2023-04-24T00:28:59;3.35;;;1.15;;
56893;SDS011;43392;50.078;13.704;2023-04-24T00:31:25;2.33;;;1.17;;
56893;SDS011;43392;50.078;13.704;2023-04-24T00:33:52;1.85;;;0.93;;
56893;SDS011;43392;50.078;13.704;2023-04-24T00:36:19;3.05;;;1.27;;
56893;SDS011;43392;50.078;13.704;2023-04-24T00:38:45;4.00;;;1.55;;
56893;SDS011;43392;50.078;13.704;2023-04-24T00:41:12;4.25;;;1.40;;
56893;SDS011;43392;50.078;13.704;2023-04-24T00:43:39;3.17;;;1.45;;
56893;SDS011;43392;50.078;13.704;2023-04-24T00:46:07;3.13;;;1.35;;
56893;SDS011;43392;50.078;13.704;2023-04-24T00:48:34;2.65;;;1.50;;
56893;SDS011;43392;50.078;13.704;2023-04-24T00:51:01;3.85;;;1.50;;
56893;SDS011;43392;50.078;13.704;2023-04-24T00:53:27;1.83;;;1.27;;
56893;SDS011;43392;50.078;13.704;2023-04-24T00:55:54;5.07;;;1.70;;
56893;SDS011;43392;50.078;13.704;2023-04-24T00:58:22;3.63;;;1.50;;
56893;SDS011;43392;50.078;13.704;2023-04-24T01:00:49;5.88;;;1.70;;
56893;SDS011;43392;50.078;13.704;2023-04-24T01:03:20;4.43;;;1.50;;
56893;SDS011;43392;50.078;13.704;2023-04-24T01:05:48;2.90;;;1.60;;
56893;SDS011;43392;50.078;13.704;2023-04-24T01:08:15;3.03;;;1.55;;
56893;SDS011;43392;50.078;13.704;2023-04-24T01:10:42;2.75;;;1.42;;
56893;SDS011;43392;50.078;13.704;2023-04-24T01:13:11;3.22;;;1.77;;
56893;SDS011;43392;50.078;13.704;2023-04-24T01:15:37;3.97;;;1.58;;
56893;SDS011;43392;50.078;13.704;2023-04-24T01:18:04;5.07;;;1.80;;
56893;SDS011;43392;50.078;13.704;2023-04-24T01:20:32;4.45;;;1.88;;
56893;SDS011;43392;50.078;13.704;2023-04-24T01:23:03;3.30;;;1.98;;
56893;SDS011;43392;50.078;13.704;2023-04-24T01:25:29;5.68;;;2.17;;
56893;SDS011;43392;50.078;13.704;2023-04-24T01:27:56;6.03;;;2.50;;
56893;SDS011;43392;50.078;13.704;2023-04-24T01:30:23;4.60;;;2.20;;
56893;SDS011;43392;50.078;13.704;2023-04-24T01:32:50;5.88;;;2.10;;
56893;SDS011;43392;50.078;13.704;2023-04-24T01:35:17;3.38;;;2.10;;
56893;SDS011;43392;50.078;13.704;2023-04-24T01:37:45;5.35;;;2.40;;
56893;SDS011;43392;50.078;13.704;2023-04-24T01:40:13;6.35;;;3.05;;
56893;SDS011;43392;50.078;13.704;2023-04-24T01:42:40;5.38;;;3.40;;
56893;SDS011;43392;50.078;13.704;2023-04-24T01:45:08;8.70;;;3.78;;
56893;SDS011;43392;50.078;13.704;2023-04-24T01:47:37;7.07;;;3.60;;
56893;SDS011;43392;50.078;13.704;2023-04-24T01:50:04;7.07;;;4.03;;
56893;SDS011;43392;50.078;13.704;2023-04-24T01:52:31;6.63;;;4.07;;
56893;SDS011;43392;50.078;13.704;2023-04-24T01:55:00;7.85;;;4.38;;
56893;SDS011;43392;50.078;13.704;2023-04-24T01:57:28;7.85;;;4.50;;
56893;SDS011;43392;50.078;13.704;2023-04-24T01:59:56;7.30;;;4.40;;
56893;SDS011;43392;50.078;13.704;2023-04-24T02:02:23;8.38;;;4.70;;
56893;SDS011;43392;50.078;13.704;2023-04-24T02:04:52;8.55;;;4.85;;
56893;SDS011;43392;50.078;13.704;2023-04-24T02:07:19;7.13;;;5.20;;
56893;SDS011;43392;50.078;13.704;2023-04-24T02:09:45;7.72;;;5.38;;
56893;SDS011;43392;50.078;13.704;2023-04-24T02:12:12;7.38;;;5.30;;
56893;SDS011;43392;50.078;13.704;2023-04-24T02:14:40;10.75;;;5.78;;
56893;SDS011;43392;50.078;13.704;2023-04-24T02:17:07;7.85;;;5.40;;
56893;SDS011;43392;50.078;13.704;2023-04-24T02:19:33;8.20;;;5.68;;
56893;SDS011;43392;50.078;13.704;2023-04-24T02:22:00;8.88;;;5.47;;
56893;SDS011;43392;50.078;13.704;2023-04-24T02:24:27;9.50;;;5.70;;
56893;SDS011;43392;50.078;13.704;2023-04-24T02:26:53;7.95;;;5.40;;
56893;SDS011;43392;50.078;13.704;2023-04-24T02:29:20;9.35;;;5.78;;
56893;SDS011;43392;50.078;13.704;2023-04-24T02:31:49;7.63;;;5.20;;
56893;SDS011;43392;50.078;13.704;2023-04-24T02:34:15;7.45;;;4.90;;
56893;SDS011;43392;50.078;13.704;2023-04-24T02:36:42;7.70;;;4.80;;
56893;SDS011;43392;50.078;13.704;2023-04-24T02:39:09;7.82;;;4.50;;
56893;SDS011;43392;50.078;13.704;2023-04-24T02:41:35;6.90;;;4.80;;
56893;SDS011;43392;50.078;13.704;2023-04-24T02:44:02;7.50;;;4.13;;
56893;SDS011;43392;50.078;13.704;2023-04-24T02:46:28;7.65;;;4.30;;
56893;SDS011;43392;50.078;13.704;2023-04-24T02:48:56;6.50;;;4.10;;
56893;SDS011;43392;50.078;13.704;2023-04-24T02:51:23;6.88;;;3.78;;
56893;SDS011;43392;50.078;13.704;2023-04-24T02:53:50;6.35;;;3.75;;
56893;SDS011;43392;50.078;13.704;2023-04-24T02:56:16;5.22;;;3.30;;
56893;SDS011;43392;50.078;13.704;2023-04-24T02:58:43;5.15;;;3.10;;
56893;SDS011;43392;50.078;13.704;2023-04-24T03:01:09;5.22;;;3.20;;
56893;SDS011;43392;50.078;13.704;2023-04-24T03:03:36;5.10;;;2.88;;
56893;SDS011;43392;50.078;13.704;2023-04-24T03:06:05;5.22;;;2.90;;
56893;SDS011;43392;50.078;13.704;2023-04-24T03:08:33;7.57;;;3.35;;
56893;SDS011;43392;50.078;13.704;2023-04-24T03:10:59;7.90;;;3.47;;
56893;SDS011;43392;50.078;13.704;2023-04-24T03:13:26;4.95;;;3.00;;
56893;SDS011;43392;50.078;13.704;2023-04-24T03:15:52;5.20;;;3.03;;
56893;SDS011;43392;50.078;13.704;2023-04-24T03:18:19;4.75;;;2.88;;
56893;SDS011;43392;50.078;13.704;2023-04-24T03:20:46;4.60;;;2.85;;
56893;SDS011;43392;50.078;13.704;2023-04-24T03:23:14;6.18;;;2.83;;
56893;SDS011;43392;50.078;13.704;2023-04-24T03:25:41;4.32;;;2.65;;
56893;SDS011;43392;50.078;13.704;2023-04-24T03:28:07;4.95;;;3.10;;
56893;SDS011;43392;50.078;13.704;2023-04-24T03:30:34;4.25;;;2.45;;
56893;SDS011;43392;50.078;13.704;2023-04-24T03:33:01;7.07;;;2.80;;
56893;SDS011;43392;50.078;13.704;2023-04-24T03:35:27;3.70;;;2.38;;
56893;SDS011;43392;50.078;13.704;2023-04-24T03:37:54;4.60;;;2.90;;
56893;SDS011;43392;50.078;13.704;2023-04-24T03:40:22;7.50;;;3.40;;
56893;SDS011;43392;50.078;13.704;2023-04-24T03:42:49;6.78;;;3.50;;
56893;SDS011;43392;50.078;13.704;2023-04-24T03:45:15;4.38;;;2.30;;
56893;SDS011;43392;50.078;13.704;2023-04-24T03:47:42;7.10;;;3.13;;
56893;SDS011;43392;50.078;13.704;2023-04-24T03:50:09;4.68;;;2.83;;
56893;SDS011;43392;50.078;13.704;2023-04-24T03:52:36;4.68;;;2.25;;
56893;SDS011;43392;50.078;13.704;2023-04-24T03:55:02;4.05;;;2.25;;
56893;SDS011;43392;50.078;13.704;2023-04-24T03:57:31;6.20;;;2.25;;
56893;SDS011;43392;50.078;13.704;2023-04-24T03:59:57;5.22;;;2.30;;
56893;SDS011;43392;50.078;13.704;2023-04-24T04:02:24;4.35;;;2.15;;
56893;SDS011;43392;50.078;13.704;2023-04-24T04:04:50;4.53;;;2.20;;
56893;SDS011;43392;50.078;13.704;2023-04-24T04:07:17;3.42;;;2.10;;
56893;SDS011;43392;50.078;13.704;2023-04-24T04:09:43;6.05;;;2.40;;
56893;SDS011;43392;50.078;13.704;2023-04-24T04:12:10;4.63;;;2.60;;
56893;SDS011;43392;50.078;13.704;2023-04-24T04:14:39;3.30;;;1.95;;
56893;SDS011;43392;50.078;13.704;2023-04-24T04:17:05;3.90;;;2.13;;
56893;SDS011;43392;50.078;13.704;2023-04-24T04:19:32;4.25;;;2.00;;
56893;SDS011;43392;50.078;13.704;2023-04-24T04:21:58;4.35;;;2.22;;
56893;SDS011;43392;50.078;13.704;2023-04-24T04:24:25;4.47;;;2.10;;
56893;SDS011;43392;50.078;13.704;2023-04-24T04:26:52;3.22;;;2.00;;
56893;SDS011;43392;50.078;13.704;2023-04-24T04:29:21;4.00;;;2.10;;
56893;SDS011;43392;50.078;13.704;2023-04-24T04:31:50;4.65;;;2.13;;
56893;SDS011;43392;50.078;13.704;2023-04-24T04:34:17;5.03;;;2.20;;
56893;SDS011;43392;50.078;13.704;2023-04-24T04:36:44;3.72;;;2.10;;
56893;SDS011;43392;50.078;13.704;2023-04-24T04:39:11;3.92;;;2.20;;
56893;SDS011;43392;50.078;13.704;2023-04-24T04:41:39;6.07;;;2.78;;
56893;SDS011;43392;50.078;13.704;2023-04-24T04:44:06;4.55;;;2.50;;
56893;SDS011;43392;50.078;13.704;2023-04-24T04:46:33;4.75;;;2.28;;
56893;SDS011;43392;50.078;13.704;2023-04-24T04:49:03;4.18;;;2.10;;
56893;SDS011;43392;50.078;13.704;2023-04-24T04:51:30;3.05;;;1.75;;
56893;SDS011;43392;50.078;13.704;2023-04-24T04:53:57;3.47;;;1.98;;
56893;SDS011;43392;50.078;13.704;2023-04-24T04:56:23;4.05;;;2.20;;
56893;SDS011;43392;50.078;13.704;2023-04-24T04:58:50;3.88;;;1.90;;
56893;SDS011;43392;50.078;13.704;2023-04-24T05:01:17;2.75;;;1.73;;
56893;SDS011;43392;50.078;13.704;2023-04-24T05:03:43;3.40;;;1.77;;
56893;SDS011;43392;50.078;13.704;2023-04-24T05:06:11;3.88;;;1.73;;
56893;SDS011;43392;50.078;13.704;2023-04-24T05:08:38;4.25;;;1.70;;
56893;SDS011;43392;50.078;13.704;2023-04-24T05:11:05;2.95;;;1.42;;
56893;SDS011;43392;50.078;13.704;2023-04-24T05:13:32;3.67;;;1.70;;
56893;SDS011;43392;50.078;13.704;2023-04-24T05:15:58;4.65;;;1.95;;
56893;SDS011;43392;50.078;13.704;2023-04-24T05:18:25;3.45;;;1.67;;
56893;SDS011;43392;50.078;13.704;2023-04-24T05:20:52;2.53;;;1.52;;
56893;SDS011;43392;50.078;13.704;2023-04-24T05:23:20;3.83;;;1.85;;
56893;SDS011;43392;50.078;13.704;2023-04-24T05:25:46;4.00;;;1.88;;
56893;SDS011;43392;50.078;13.704;2023-04-24T05:28:13;3.38;;;2.00;;
56893;SDS011;43392;50.078;13.704;2023-04-24T05:30:40;3.45;;;1.83;;
56893;SDS011;43392;50.078;13.704;2023-04-24T05:33:07;3.22;;;1.60;;
56893;SDS011;43392;50.078;13.704;2023-04-24T05:35:34;3.85;;;1.88;;
56893;SDS011;43392;50.078;13.704;2023-04-24T05:38:01;5.45;;;2.42;;
56893;SDS011;43392;50.078;13.704;2023-04-24T05:40:29;3.08;;;1.60;;
56893;SDS011;43392;50.078;13.704;2023-04-24T05:42:56;4.65;;;1.77;;
56893;SDS011;43392;50.078;13.704;2023-04-24T05:45:22;4.53;;;2.38;;
56893;SDS011;43392;50.078;13.704;2023-04-24T05:47:49;6.97;;;3.10;;
56893;SDS011;43392;50.078;13.704;2023-04-24T05:50:17;6.53;;;3.30;;
56893;SDS011;43392;50.078;13.704;2023-04-24T05:52:43;8.55;;;2.88;;
56893;SDS011;43392;50.078;13.704;2023-04-24T05:55:10;7.20;;;2.65;;
56893;SDS011;43392;50.078;13.704;2023-04-24T05:57:38;4.97;;;2.58;;
56893;SDS011;43392;50.078;13.704;2023-04-24T06:00:05;6.57;;;3.10;;
56893;SDS011;43392;50.078;13.704;2023-04-24T06:02:33;7.50;;;3.25;;
56893;SDS011;43392;50.078;13.704;2023-04-24T06:05:00;7.85;;;3.30;;
56893;SDS011;43392;50.078;13.704;2023-04-24T06:07:26;6.43;;;3.75;;
56893;SDS011;43392;50.078;13.704;2023-04-24T06:09:53;7.55;;;4.70;;
56893;SDS011;43392;50.078;13.704;2023-04-24T06:12:20;9.13;;;4.82;;
56893;SDS011;43392;50.078;13.704;2023-04-24T06:14:48;8.93;;;3.97;;
56893;SDS011;43392;50.078;13.704;2023-04-24T06:17:15;6.47;;;3.22;;
56893;SDS011;43392;50.078;13.704;2023-04-24T06:19:42;8.30;;;3.22;;
56893;SDS011;43392;50.078;13.704;2023-04-24T06:22:08;8.38;;;4.13;;
56893;SDS011;43392;50.078;13.704;2023-04-24T06:24:35;6.40;;;3.80;;
56893;SDS011;43392;50.078;13.704;2023-04-24T06:27:02;10.52;;;3.42;;
56893;SDS011;43392;50.078;13.704;2023-04-24T06:29:28;4.72;;;3.05;;
56893;SDS011;43392;50.078;13.704;2023-04-24T06:31:56;8.35;;;3.67;;
56893;SDS011;43392;50.078;13.704;2023-04-24T06:34:23;8.52;;;3.67;;
56893;SDS011;43392;50.078;13.704;2023-04-24T06:36:50;7.00;;;3.67;;
56893;SDS011;43392;50.078;13.704;2023-04-24T06:39:16;7.90;;;4.25;;
56893;SDS011;43392;50.078;13.704;2023-04-24T06:41:43;8.15;;;4.40;;
56893;SDS011;43392;50.078;13.704;2023-04-24T06:44:10;8.63;;;4.47;;
56893;SDS011;43392;50.078;13.704;2023-04-24T06:46:36;8.40;;;4.32;;
56893;SDS011;43392;50.078;13.704;2023-04-24T06:49:04;6.85;;;3.88;;
56893;SDS011;43392;50.078;13.704;2023-04-24T06:51:31;10.25;;;6.18;;
56893;SDS011;43392;50.078;13.704;2023-04-24T06:53:58;10.18;;;5.30;;
56893;SDS011;43392;50.078;13.704;2023-04-24T06:56:25;7.70;;;4.22;;
56893;SDS011;43392;50.078;13.704;2023-04-24T06:58:53;12.25;;;5.50;;
56893;SDS011;43392;50.078;13.704;2023-04-24T07:01:20;22.30;;;15.35;;
56893;SDS011;43392;50.078;13.704;2023-04-24T07:03:47;9.75;;;5.85;;
56893;SDS011;43392;50.078;13.704;2023-04-24T07:06:15;9.95;;;6.55;;
56893;SDS011;43392;50.078;13.704;2023-04-24T07:08:43;10.53;;;7.83;;
56893;SDS011;43392;50.078;13.704;2023-04-24T07:11:10;13.40;;;9.65;;
56893;SDS011;43392;50.078;13.704;2023-04-24T07:13:36;10.63;;;7.40;;
56893;SDS011;43392;50.078;13.704;2023-04-24T07:16:06;9.48;;;5.35;;
56893;SDS011;43392;50.078;13.704;2023-04-24T07:18:33;8.23;;;4.68;;
56893;SDS011;43392;50.078;13.704;2023-04-24T07:21:00;7.75;;;4.65;;
56893;SDS011;43392;50.078;13.704;2023-04-24T07:23:28;6.63;;;3.67;;
56893;SDS011;43392;50.078;13.704;2023-04-24T07:25:55;6.57;;;4.00;;
56893;SDS011;43392;50.078;13.704;2023-04-24T07:28:22;7.43;;;3.95;;
56893;SDS011;43392;50.078;13.704;2023-04-24T07:30:49;6.55;;;3.60;;
56893;SDS011;43392;50.078;13.704;2023-04-24T07:33:18;6.93;;;4.15;;
56893;SDS011;43392;50.078;13.704;2023-04-24T07:35:45;6.03;;;3.75;;
56893;SDS011;43392;50.078;13.704;2023-04-24T07:38:12;6.53;;;3.90;;
56893;SDS011;43392;50.078;13.704;2023-04-24T07:40:40;8.32;;;4.20;;
56893;SDS011;43392;50.078;13.704;2023-04-24T07:43:06;9.18;;;4.18;;
56893;SDS011;43392;50.078;13.704;2023-04-24T07:45:33;9.45;;;4.93;;
56893;SDS011;43392;50.078;13.704;2023-04-24T07:48:02;8.27;;;4.47;;
56893;SDS011;43392;50.078;13.704;2023-04-24T07:50:29;7.70;;;4.10;;
56893;SDS011;43392;50.078;13.704;2023-04-24T07:52:55;8.77;;;4.65;;
56893;SDS011;43392;50.078;13.704;2023-04-24T07:55:22;8.05;;;4.43;;
56893;SDS011;43392;50.078;13.704;2023-04-24T07:57:50;9.85;;;6.75;;
56893;SDS011;43392;50.078;13.704;2023-04-24T08:00:17;8.20;;;5.03;;
56893;SDS011;43392;50.078;13.704;2023-04-24T08:02:44;7.18;;;4.47;;
56893;SDS011;43392;50.078;13.704;2023-04-24T08:05:11;7.03;;;4.30;;
56893;SDS011;43392;50.078;13.704;2023-04-24T08:07:38;7.38;;;4.50;;
56893;SDS011;43392;50.078;13.704;2023-04-24T08:10:05;9.55;;;5.40;;
56893;SDS011;43392;50.078;13.704;2023-04-24T08:12:32;14.00;;;6.53;;
56893;SDS011;43392;50.078;13.704;2023-04-24T08:15:00;9.10;;;5.65;;
56893;SDS011;43392;50.078;13.704;2023-04-24T08:17:27;9.65;;;5.93;;
56893;SDS011;43392;50.078;13.704;2023-04-24T08:19:53;14.32;;;8.15;;
56893;SDS011;43392;50.078;13.704;2023-04-24T08:22:26;16.63;;;10.30;;
56893;SDS011;43392;50.078;13.704;2023-04-24T08:24:52;18.20;;;10.45;;
56893;SDS011;43392;50.078;13.704;2023-04-24T08:27:19;17.58;;;9.57;;
56893;SDS011;43392;50.078;13.704;2023-04-24T08:29:46;11.48;;;6.68;;
56893;SDS011;43392;50.078;13.704;2023-04-24T08:32:14;16.70;;;8.30;;
56893;SDS011;43392;50.078;13.704;2023-04-24T08:34:41;10.45;;;7.35;;
56893;SDS011;43392;50.078;13.704;2023-04-24T08:37:07;11.27;;;5.55;;
56893;SDS011;43392;50.078;13.704;2023-04-24T08:39:34;8.18;;;4.78;;
56893;SDS011;43392;50.078;13.704;2023-04-24T08:42:01;13.40;;;5.82;;
56893;SDS011;43392;50.078;13.704;2023-04-24T08:44:32;8.38;;;4.20;;
56893;SDS011;43392;50.078;13.704;2023-04-24T08:47:00;8.18;;;4.45;;
56893;SDS011;43392;50.078;13.704;2023-04-24T08:49:29;6.60;;;3.95;;
56893;SDS011;43392;50.078;13.704;2023-04-24T08:51:56;6.82;;;4.05;;
56893;SDS011;43392;50.078;13.704;2023-04-24T08:54:24;9.35;;;4.95;;
56893;SDS011;43392;50.078;13.704;2023-04-24T08:56:51;8.60;;;4.32;;
56893;SDS011;43392;50.078;13.704;2023-04-24T08:59:20;7.65;;;4.88;;
56893;SDS011;43392;50.078;13.704;2023-04-24T09:01:48;10.20;;;6.20;;
56893;SDS011;43392;50.078;13.704;2023-04-24T09:04:17;13.80;;;8.55;;
56893;SDS011;43392;50.078;13.704;2023-04-24T09:06:48;12.45;;;7.15;;
56893;SDS011;43392;50.078;13.704;2023-04-24T09:09:15;10.63;;;5.38;;
56893;SDS011;43392;50.078;13.704;2023-04-24T09:11:43;7.50;;;3.70;;
56893;SDS011;43392;50.078;13.704;2023-04-24T09:14:09;7.50;;;2.83;;
56893;SDS011;43392;50.078;13.704;2023-04-24T09:16:37;5.95;;;3.03;;
56893;SDS011;43392;50.078;13.704;2023-04-24T09:19:03;7.93;;;3.70;;
56893;SDS011;43392;50.078;13.704;2023-04-24T09:21:31;8.20;;;3.78;;
56893;SDS011;43392;50.078;13.704;2023-04-24T09:24:00;5.75;;;3.40;;
56893;SDS011;43392;50.078;13.704;2023-04-24T09:26:29;6.18;;;3.55;;
56893;SDS011;43392;50.078;13.704;2023-04-24T09:28:57;6.13;;;2.60;;
56893;SDS011;43392;50.078;13.704;2023-04-24T09:31:26;6.45;;;2.67;;
56893;SDS011;43392;50.078;13.704;2023-04-24T09:33:55;5.20;;;2.70;;
56893;SDS011;43392;50.078;13.704;2023-04-24T09:36:27;6.80;;;3.90;;
56893;SDS011;43392;50.078;13.704;2023-04-24T09:38:57;8.63;;;4.28;;
56893;SDS011;43392;50.078;13.704;2023-04-24T09:41:26;7.97;;;5.35;;
56893;SDS011;43392;50.078;13.704;2023-04-24T09:43:54;10.85;;;6.10;;
56893;SDS011;43392;50.078;13.704;2023-04-24T09:46:21;8.05;;;4.40;;
56893;SDS011;43392;50.078;13.704;2023-04-24T09:48:55;7.25;;;3.58;;
56893;SDS011;43392;50.078;13.704;2023-04-24T09:51:32;8.85;;;4.90;;
56893;SDS011;43392;50.078;13.704;2023-04-24T09:54:00;7.60;;;3.75;;
56893;SDS011;43392;50.078;13.704;2023-04-24T09:56:28;5.88;;;2.92;;
56893;SDS011;43392;50.078;13.704;2023-04-24T09:59:03;8.77;;;4.53;;
56893;SDS011;43392;50.078;13.704;2023-04-24T10:01:31;10.35;;;6.25;;
56893;SDS011;43392;50.078;13.704;2023-04-24T10:03:57;11.20;;;5.28;;
56893;SDS011;43392;50.078;13.704;2023-04-24T10:06:29;11.93;;;4.22;;
56893;SDS011;43392;50.078;13.704;2023-04-24T10:08:57;7.35;;;3.80;;
56893;SDS011;43392;50.078;13.704;2023-04-24T10:11:25;8.23;;;4.50;;
56893;SDS011;43392;50.078;13.704;2023-04-24T10:13:54;6.63;;;3.83;;
56893;SDS011;43392;50.078;13.704;2023-04-24T10:16:22;7.93;;;3.97;;
56893;SDS011;43392;50.078;13.704;2023-04-24T10:18:49;7.40;;;3.83;;
56893;SDS011;43392;50.078;13.704;2023-04-24T10:21:16;10.35;;;5.53;;
56893;SDS011;43392;50.078;13.704;2023-04-24T10:23:43;8.27;;;3.75;;
56893;SDS011;43392;50.078;13.704;2023-04-24T10:26:12;13.30;;;3.58;;
56893;SDS011;43392;50.078;13.704;2023-04-24T10:31:10;5.90;;;3.25;;
56893;SDS011;43392;50.078;13.704;2023-04-24T10:33:38;6.65;;;4.00;;
56893;SDS011;43392;50.078;13.704;2023-04-24T10:36:07;6.90;;;3.45;;
56893;SDS011;43392;50.078;13.704;2023-04-24T10:38:35;7.30;;;4.03;;
56893;SDS011;43392;50.078;13.704;2023-04-24T10:41:08;10.80;;;4.35;;
56893;SDS011;43392;50.078;13.704;2023-04-24T10:43:41;6.78;;;3.65;;
56893;SDS011;43392;50.078;13.704;2023-04-24T10:46:10;7.32;;;3.30;;
56893;SDS011;43392;50.078;13.704;2023-04-24T10:48:41;6.43;;;2.83;;
56893;SDS011;43392;50.078;13.704;2023-04-24T10:51:10;5.05;;;2.08;;
56893;SDS011;43392;50.078;13.704;2023-04-24T10:53:38;6.80;;;3.00;;
56893;SDS011;43392;50.078;13.704;2023-04-24T10:56:06;3.83;;;2.17;;
56893;SDS011;43392;50.078;13.704;2023-04-24T10:58:38;5.15;;;2.63;;
56893;SDS011;43392;50.078;13.704;2023-04-24T11:01:06;4.95;;;2.40;;
56893;SDS011;43392;50.078;13.704;2023-04-24T11:03:34;4.93;;;2.30;;
56893;SDS011;43392;50.078;13.704;2023-04-24T11:06:03;4.32;;;1.70;;
56893;SDS011;43392;50.078;13.704;2023-04-24T11:08:32;14.98;;;7.57;;
56893;SDS011;43392;50.078;13.704;2023-04-24T11:11:04;11.45;;;5.80;;
56893;SDS011;43392;50.078;13.704;2023-04-24T11:16:35;3.90;;;2.10;;
56893;SDS011;43392;50.078;13.704;2023-04-24T11:19:07;5.22;;;1.40;;
56893;SDS011;43392;50.078;13.704;2023-04-24T11:21:41;7.70;;;3.30;;
56893;SDS011;43392;50.078;13.704;2023-04-24T11:24:25;23.80;;;13.95;;
56893;SDS011;43392;50.078;13.704;2023-04-24T11:26:57;8.48;;;4.15;;
56893;SDS011;43392;50.078;13.704;2023-04-24T11:29:39;9.93;;;8.90;;
56893;SDS011;43392;50.078;13.704;2023-04-24T11:32:14;7.97;;;3.00;;
56893;SDS011;43392;50.078;13.704;2023-04-24T11:34:46;2.47;;;1.20;;
56893;SDS011;43392;50.078;13.704;2023-04-24T11:37:13;1.98;;;0.88;;
56893;SDS011;43392;50.078;13.704;2023-04-24T11:39:40;5.43;;;1.25;;
56893;SDS011;43392;50.078;13.704;2023-04-24T11:42:07;2.03;;;1.05;;
56893;SDS011;43392;50.078;13.704;2023-04-24T11:44:35;2.53;;;1.00;;
56893;SDS011;43392;50.078;13.704;2023-04-24T11:47:02;2.35;;;1.08;;
56893;SDS011;43392;50.078;13.704;2023-04-24T11:49:29;1.33;;;1.10;;
56893;SDS011;43392;50.078;13.704;2023-04-24T11:51:57;1.85;;;0.80;;
56893;SDS011;43392;50.078;13.704;2023-04-24T11:54:23;2.13;;;0.70;;
56893;SDS011;43392;50.078;13.704;2023-04-24T11:56:50;2.38;;;1.05;;
56893;SDS011;43392;50.078;13.704;2023-04-24T11:59:16;2.75;;;1.05;;
56893;SDS011;43392;50.078;13.704;2023-04-24T12:01:43;1.83;;;0.90;;
56893;SDS011;43392;50.078;13.704;2023-04-24T12:04:11;1.70;;;1.10;;
56893;SDS011;43392;50.078;13.704;2023-04-24T12:06:38;2.53;;;0.68;;
56893;SDS011;43392;50.078;13.704;2023-04-24T12:09:06;2.33;;;0.90;;
56893;SDS011;43392;50.078;13.704;2023-04-24T12:11:34;7.50;;;0.70;;
56893;SDS011;43392;50.078;13.704;2023-04-24T12:14:09;2.17;;;0.90;;
56893;SDS011;43392;50.078;13.704;2023-04-24T12:16:36;0.98;;;0.80;;
56893;SDS011;43392;50.078;13.704;2023-04-24T12:19:03;4.13;;;1.70;;
56893;SDS011;43392;50.078;13.704;2023-04-24T12:21:31;4.43;;;2.25;;
56893;SDS011;43392;50.078;13.704;2023-04-24T12:23:57;1.65;;;0.80;;
56893;SDS011;43392;50.078;13.704;2023-04-24T12:26:26;2.78;;;1.20;;
56893;SDS011;43392;50.078;13.704;2023-04-24T12:28:54;2.33;;;0.80;;
56893;SDS011;43392;50.078;13.704;2023-04-24T12:31:20;1.85;;;0.80;;
56893;SDS011;43392;50.078;13.704;2023-04-24T12:33:47;1.23;;;0.80;;
56893;SDS011;43392;50.078;13.704;2023-04-24T12:36:14;1.65;;;0.80;;
56893;SDS011;43392;50.078;13.704;2023-04-24T12:38:43;3.25;;;1.10;;
56893;SDS011;43392;50.078;13.704;2023-04-24T12:43:40;2.97;;;0.93;;
56893;SDS011;43392;50.078;13.704;2023-04-24T12:46:17;2.00;;;0.75;;
56893;SDS011;43392;50.078;13.704;2023-04-24T12:48:44;4.00;;;1.15;;
56893;SDS011;43392;50.078;13.704;2023-04-24T12:51:10;2.60;;;1.02;;
56893;SDS011;43392;50.078;13.704;2023-04-24T12:53:37;2.08;;;1.20;;
56893;SDS011;43392;50.078;13.704;2023-04-24T12:56:04;2.00;;;0.88;;
56893;SDS011;43392;50.078;13.704;2023-04-24T12:58:30;2.47;;;1.00;;
56893;SDS011;43392;50.078;13.704;2023-04-24T13:00:58;2.15;;;1.00;;
56893;SDS011;43392;50.078;13.704;2023-04-24T13:03:25;3.90;;;2.15;;
56893;SDS011;43392;50.078;13.704;2023-04-24T13:05:52;2.72;;;1.30;;
56893;SDS011;43392;50.078;13.704;2023-04-24T13:08:19;1.58;;;0.95;;
56893;SDS011;43392;50.078;13.704;2023-04-24T13:10:45;2.00;;;1.25;;
56893;SDS011;43392;50.078;13.704;2023-04-24T13:13:12;1.98;;;1.00;;
56893;SDS011;43392;50.078;13.704;2023-04-24T13:15:39;2.35;;;1.00;;
56893;SDS011;43392;50.078;13.704;2023-04-24T13:18:07;3.10;;;1.25;;
56893;SDS011;43392;50.078;13.704;2023-04-24T13:20:33;1.88;;;1.10;;
56893;SDS011;43392;50.078;13.704;2023-04-24T13:23:01;3.42;;;1.10;;
56893;SDS011;43392;50.078;13.704;2023-04-24T13:25:36;2.13;;;1.10;;
56893;SDS011;43392;50.078;13.704;2023-04-24T13:28:04;6.35;;;2.08;;
56893;SDS011;43392;50.078;13.704;2023-04-24T13:30:30;3.38;;;1.58;;
56893;SDS011;43392;50.078;13.704;2023-04-24T13:32:57;1.77;;;1.20;;
56893;SDS011;43392;50.078;13.704;2023-04-24T13:35:25;2.83;;;1.13;;
56893;SDS011;43392;50.078;13.704;2023-04-24T13:37:52;2.35;;;0.90;;
56893;SDS011;43392;50.078;13.704;2023-04-24T13:40:18;1.98;;;1.00;;
56893;SDS011;43392;50.078;13.704;2023-04-24T13:42:45;1.65;;;0.90;;
56893;SDS011;43392;50.078;13.704;2023-04-24T13:45:12;3.83;;;1.20;;
56893;SDS011;43392;50.078;13.704;2023-04-24T13:47:39;3.28;;;1.25;;
56893;SDS011;43392;50.078;13.704;2023-04-24T13:50:06;2.47;;;0.93;;
56893;SDS011;43392;50.078;13.704;2023-04-24T13:52:35;3.33;;;1.50;;
56893;SDS011;43392;50.078;13.704;2023-04-24T13:55:02;7.13;;;1.30;;
56893;SDS011;43392;50.078;13.704;2023-04-24T13:57:28;3.72;;;1.70;;
56893;SDS011;43392;50.078;13.704;2023-04-24T13:59:56;2.70;;;1.40;;
56893;SDS011;43392;50.078;13.704;2023-04-24T14:02:26;3.47;;;1.52;;
56893;SDS011;43392;50.078;13.704;2023-04-24T14:04:53;2.30;;;1.00;;
56893;SDS011;43392;50.078;13.704;2023-04-24T14:07:19;3.45;;;1.50;;
56893;SDS011;43392;50.078;13.704;2023-04-24T14:09:47;6.50;;;3.13;;
56893;SDS011;43392;50.078;13.704;2023-04-24T14:12:14;16.38;;;8.75;;
56893;SDS011;43392;50.078;13.704;2023-04-24T14:14:44;5.47;;;2.20;;
56893;SDS011;43392;50.078;13.704;2023-04-24T14:17:12;2.88;;;1.30;;
56893;SDS011;43392;50.078;13.704;2023-04-24T14:19:38;6.30;;;1.60;;
56893;SDS011;43392;50.078;13.704;2023-04-24T14:22:05;4.78;;;1.90;;
56893;SDS011;43392;50.078;13.704;2023-04-24T14:24:32;91.57;;;39.38;;
56893;SDS011;43392;50.078;13.704;2023-04-24T14:26:59;67.88;;;29.23;;
56893;SDS011;43392;50.078;13.704;2023-04-24T14:29:26;88.63;;;36.88;;
56893;SDS011;43392;50.078;13.704;2023-04-24T14:31:53;52.88;;;25.48;;
56893;SDS011;43392;50.078;13.704;2023-04-24T14:34:19;123.40;;;51.85;;
56893;SDS011;43392;50.078;13.704;2023-04-24T14:36:46;55.10;;;26.23;;
56893;SDS011;43392;50.078;13.704;2023-04-24T14:39:13;72.20;;;32.13;;
56893;SDS011;43392;50.078;13.704;2023-04-24T14:41:39;54.72;;;23.88;;
56893;SDS011;43392;50.078;13.704;2023-04-24T14:44:07;51.40;;;23.52;;